메인 페이지
METAR-TAF:

METAR-TAF

공항 :

오스틴 버그스트롬 국제공항

오스틴, 텍사스, 미국

위도: 30-11-40N, 경도: 097-40-12W, 고도: 165m

현재 날씨관측

예보는 55분 전, 08:53시(UTC)에 발표되었습니다.
3kt
온도 24°C
습도 94%
기압 1014 hPa
시정: 16.1km
고도 700ft 상공 구름 많음
고도 2300ft 상공 흐림

METAR: KAUS 300853Z 09003KT 10SM BKN007 OVC023 24/23 A2995 RMK AO2 SLP129 T02440228 58007

시각: 04:48 (09:48 UTC)

예보

예보는 58분 전, 08:50시(UTC)에 발표되었습니다.
예보 대상 시간: 30일 09시부터 31일 12시까지 (UTC)
남남동5kt
시정: 10km
고도 700ft 상공 구름 많음
30일 1400시부터 (UTC)
남남동9kt
시정: 10km
고도 1500ft 상공 구름 많음
30일 1700시부터 (UTC)
남남동14kt
시정: 10km
고도 5000ft 상공 구름 보통
31일 0100시부터 (UTC)
동남동9kt
시정: 10km
고도 5000ft 상공 구름 많음
31일 0800시부터 (UTC)
남남동9kt
시정: 10km
고도 1500ft 상공 흐림
확률 30%
31일 09시부터 31일 12시까지 (UTC)
고도 1000ft 상공 구름 많음, 적란운.
뇌우, 약한비,

TAF: KAUS 300850Z 3009/3112 16005KT P6SM BKN007 FM301400 16009KT P6SM BKN015 FM301700 15014KT P6SM SCT050 FM310100 12009KT P6SM BKN050 FM310800 16009KT P6SM OVC015 PROB30 3109/3112 -TSRA BKN010CB

4,000개 이상의 공항 관측 자료 및 예보 (METAR 및 TAF 보고).

지도상에서 검색 가능한 기상관측소가 노란 점과 빨간 점으로 표시되어 있습니다.

기상관측소 명을 보려면 표시 위로 마우스를 이동하세요.

날씨 관측과 예보를 보려면 클릭하세요.

지도 변경 : 확대하려면 엑스 표시가 있는 녹색 버튼, 축소하려면 빼기 표시가 있는 녹색 버튼, 다음 페이지의 지도를 보려면 녹색 화살표를 클릭하세요.


METAR-TAF: